sensor_id;sensor_type;location;lat;lon;timestamp;pressure;altitude;pressure_sealevel;temperature;humidity
62126;BME280;69591;53.282;6.150;2023-04-24T00:00:08;99798.94;;;17.87;58.61
62126;BME280;69591;53.282;6.150;2023-04-24T00:01:10;99797.00;;;17.88;58.71
62126;BME280;69591;53.282;6.150;2023-04-24T00:02:12;99788.78;;;17.88;58.40
62126;BME280;69591;53.282;6.150;2023-04-24T00:03:13;99795.03;;;17.88;58.41
62126;BME280;69591;53.282;6.150;2023-04-24T00:04:15;99797.00;;;17.88;58.63
62126;BME280;69591;53.282;6.150;2023-04-24T00:05:16;99795.44;;;17.87;58.61
62126;BME280;69591;53.282;6.150;2023-04-24T00:06:18;99789.59;;;17.88;58.38
62126;BME280;69591;53.282;6.150;2023-04-24T00:07:21;99793.47;;;17.87;58.61
62126;BME280;69591;53.282;6.150;2023-04-24T00:08:23;99791.53;;;17.88;58.41
62126;BME280;69591;53.282;6.150;2023-04-24T00:09:24;99789.59;;;17.88;58.36
62126;BME280;69591;53.282;6.150;2023-04-24T00:10:26;99788.78;;;17.88;58.63
62126;BME280;69591;53.282;6.150;2023-04-24T00:11:27;99788.03;;;17.87;58.37
62126;BME280;69591;53.282;6.150;2023-04-24T00:12:29;99789.59;;;17.88;58.49
62126;BME280;69591;53.282;6.150;2023-04-24T00:13:30;99786.06;;;17.88;58.61
62126;BME280;69591;53.282;6.150;2023-04-24T00:14:32;99794.25;;;17.88;58.48
62126;BME280;69591;53.282;6.150;2023-04-24T00:15:33;99787.25;;;17.87;58.48
62126;BME280;69591;53.282;6.150;2023-04-24T00:16:35;99782.56;;;17.87;58.33
62126;BME280;69591;53.282;6.150;2023-04-24T00:17:36;99783.34;;;17.88;58.59
62126;BME280;69591;53.282;6.150;2023-04-24T00:18:38;99788.03;;;17.87;58.58
62126;BME280;69591;53.282;6.150;2023-04-24T00:19:40;99780.59;;;17.88;58.41
62126;BME280;69591;53.282;6.150;2023-04-24T00:20:41;99786.06;;;17.88;58.66
62126;BME280;69591;53.282;6.150;2023-04-24T00:21:43;99790.34;;;17.89;58.46
62126;BME280;69591;53.282;6.150;2023-04-24T00:22:46;99784.88;;;17.89;58.46
62126;BME280;69591;53.282;6.150;2023-04-24T00:23:47;99786.06;;;17.88;58.63
62126;BME280;69591;53.282;6.150;2023-04-24T00:24:49;99780.59;;;17.88;58.57
62126;BME280;69591;53.282;6.150;2023-04-24T00:25:50;99779.81;;;17.87;58.68
62126;BME280;69591;53.282;6.150;2023-04-24T00:26:52;99777.88;;;17.88;58.43
62126;BME280;69591;53.282;6.150;2023-04-24T00:27:53;99781.78;;;17.87;58.61
62126;BME280;69591;53.282;6.150;2023-04-24T00:28:55;99777.88;;;17.88;58.68
62126;BME280;69591;53.282;6.150;2023-04-24T00:29:56;99780.59;;;17.88;58.50
62126;BME280;69591;53.282;6.150;2023-04-24T00:30:58;99777.88;;;17.88;58.70
62126;BME280;69591;53.282;6.150;2023-04-24T00:31:59;99779.81;;;17.87;58.61
62126;BME280;69591;53.282;6.150;2023-04-24T00:33:01;99773.59;;;17.87;58.43
62126;BME280;69591;53.282;6.150;2023-04-24T00:34:03;99782.56;;;17.87;58.61
62126;BME280;69591;53.282;6.150;2023-04-24T00:35:05;99772.84;;;17.86;58.71
62126;BME280;69591;53.282;6.150;2023-04-24T00:36:07;99780.59;;;17.88;58.70
62126;BME280;69591;53.282;6.150;2023-04-24T00:37:17;99770.84;;;17.87;58.68
62126;BME280;69591;53.282;6.150;2023-04-24T00:38:20;99775.16;;;17.88;58.46
62126;BME280;69591;53.282;6.150;2023-04-24T00:39:21;99775.16;;;17.88;58.62
62126;BME280;69591;53.282;6.150;2023-04-24T00:40:23;99770.84;;;17.87;58.49
62126;BME280;69591;53.282;6.150;2023-04-24T00:41:25;99771.63;;;17.87;58.66
62126;BME280;69591;53.282;6.150;2023-04-24T00:42:26;99770.84;;;17.87;58.52
62126;BME280;69591;53.282;6.150;2023-04-24T00:43:28;99772.41;;;17.88;58.49
62126;BME280;69591;53.282;6.150;2023-04-24T00:44:30;99769.31;;;17.86;58.59
62126;BME280;69591;53.282;6.150;2023-04-24T00:45:31;99770.84;;;17.87;58.39
62126;BME280;69591;53.282;6.150;2023-04-24T00:46:33;99768.13;;;17.87;58.46
62126;BME280;69591;53.282;6.150;2023-04-24T00:47:34;99768.13;;;17.87;58.49
62126;BME280;69591;53.282;6.150;2023-04-24T00:48:36;99768.13;;;17.87;58.51
62126;BME280;69591;53.282;6.150;2023-04-24T00:49:38;99771.63;;;17.87;58.64
62126;BME280;69591;53.282;6.150;2023-04-24T00:50:40;99774.38;;;17.87;58.49
62126;BME280;69591;53.282;6.150;2023-04-24T00:51:41;99762.66;;;17.87;58.43
62126;BME280;69591;53.282;6.150;2023-04-24T00:52:43;99768.13;;;17.87;58.80
62126;BME280;69591;53.282;6.150;2023-04-24T00:53:46;99772.41;;;17.88;58.48
62126;BME280;69591;53.282;6.150;2023-04-24T00:54:47;99770.84;;;17.87;58.44
62126;BME280;69591;53.282;6.150;2023-04-24T00:55:49;99772.41;;;17.88;58.69
62126;BME280;69591;53.282;6.150;2023-04-24T00:56:51;99768.13;;;17.87;58.52
62126;BME280;69591;53.282;6.150;2023-04-24T00:57:53;99767.38;;;17.86;58.47
62126;BME280;69591;53.282;6.150;2023-04-24T00:58:54;99768.13;;;17.87;58.71
62126;BME280;69591;53.282;6.150;2023-04-24T00:59:56;99766.59;;;17.86;58.44
62126;BME280;69591;53.282;6.150;2023-04-24T01:00:58;99766.16;;;17.87;58.52
62126;BME280;69591;53.282;6.150;2023-04-24T01:02:01;99760.72;;;17.87;58.57
62126;BME280;69591;53.282;6.150;2023-04-24T01:03:03;99757.19;;;17.87;58.44
62126;BME280;69591;53.282;6.150;2023-04-24T01:04:06;99752.53;;;17.87;58.46
62126;BME280;69591;53.282;6.150;2023-04-24T01:05:08;99754.47;;;17.87;58.65
62126;BME280;69591;53.282;6.150;2023-04-24T01:06:10;99756.03;;;17.88;58.50
62126;BME280;69591;53.282;6.150;2023-04-24T01:07:11;99758.75;;;17.88;58.62
62126;BME280;69591;53.282;6.150;2023-04-24T01:08:13;99759.94;;;17.87;58.56
62126;BME280;69591;53.282;6.150;2023-04-24T01:09:16;99754.47;;;17.87;58.64
62126;BME280;69591;53.282;6.150;2023-04-24T01:10:19;99749.00;;;17.87;58.71
62126;BME280;69591;53.282;6.150;2023-04-24T01:11:21;99759.19;;;17.86;58.43
62126;BME280;69591;53.282;6.150;2023-04-24T01:12:22;99754.47;;;17.87;58.73
62126;BME280;69591;53.282;6.150;2023-04-24T01:13:24;99754.47;;;17.87;58.59
62126;BME280;69591;53.282;6.150;2023-04-24T01:14:25;99751.72;;;17.87;58.38
62126;BME280;69591;53.282;6.150;2023-04-24T01:15:27;99759.94;;;17.87;58.44
62126;BME280;69591;53.282;6.150;2023-04-24T01:16:28;99745.53;;;17.86;58.42
62126;BME280;69591;53.282;6.150;2023-04-24T01:17:30;99749.78;;;17.87;58.47
62126;BME280;69591;53.282;6.150;2023-04-24T01:18:31;99751.72;;;17.87;58.65
62126;BME280;69591;53.282;6.150;2023-04-24T01:19:33;99749.00;;;17.87;58.70
62126;BME280;69591;53.282;6.150;2023-04-24T01:20:34;99749.00;;;17.87;58.42
62126;BME280;69591;53.282;6.150;2023-04-24T01:21:38;99751.72;;;17.87;58.56
62126;BME280;69591;53.282;6.150;2023-04-24T01:22:41;99754.47;;;17.87;58.58
62126;BME280;69591;53.282;6.150;2023-04-24T01:23:43;99751.72;;;17.87;58.55
62126;BME280;69591;53.282;6.150;2023-04-24T01:24:44;99753.72;;;17.86;58.67
62126;BME280;69591;53.282;6.150;2023-04-24T01:25:46;99750.97;;;17.86;58.57
62126;BME280;69591;53.282;6.150;2023-04-24T01:26:47;99747.47;;;17.86;58.66
62126;BME280;69591;53.282;6.150;2023-04-24T01:27:49;99747.47;;;17.86;58.62
62126;BME280;69591;53.282;6.150;2023-04-24T01:28:50;99747.47;;;17.86;58.47
62126;BME280;69591;53.282;6.150;2023-04-24T01:29:52;99752.94;;;17.86;58.47
62126;BME280;69591;53.282;6.150;2023-04-24T01:30:53;99752.16;;;17.85;58.63
62126;BME280;69591;53.282;6.150;2023-04-24T01:31:57;99754.47;;;17.87;58.56
62126;BME280;69591;53.282;6.150;2023-04-24T01:32:58;99750.97;;;17.86;58.59
62126;BME280;69591;53.282;6.150;2023-04-24T01:34:00;99752.94;;;17.86;58.53
62126;BME280;69591;53.282;6.150;2023-04-24T01:35:02;99748.25;;;17.86;58.50
62126;BME280;69591;53.282;6.150;2023-04-24T01:36:04;99745.53;;;17.86;58.66
62126;BME280;69591;53.282;6.150;2023-04-24T01:37:05;99749.00;;;17.87;58.58
62126;BME280;69591;53.282;6.150;2023-04-24T01:38:08;99748.25;;;17.86;58.61
62126;BME280;69591;53.282;6.150;2023-04-24T01:39:10;99752.94;;;17.86;58.61
62126;BME280;69591;53.282;6.150;2023-04-24T01:40:12;99750.19;;;17.86;58.72
62126;BME280;69591;53.282;6.150;2023-04-24T01:41:13;99742.00;;;17.86;58.55
62126;BME280;69591;53.282;6.150;2023-04-24T01:42:15;99743.53;;;17.87;58.53
62126;BME280;69591;53.282;6.150;2023-04-24T01:43:17;99744.75;;;17.86;58.59
62126;BME280;69591;53.282;6.150;2023-04-24T01:44:19;99746.28;;;17.87;58.41
62126;BME280;69591;53.282;6.150;2023-04-24T01:45:20;99747.47;;;17.86;58.40
62126;BME280;69591;53.282;6.150;2023-04-24T01:46:22;99742.78;;;17.86;58.49
62126;BME280;69591;53.282;6.150;2023-04-24T01:47:23;99742.78;;;17.86;58.46
62126;BME280;69591;53.282;6.150;2023-04-24T01:48:25;99743.53;;;17.87;58.49
62126;BME280;69591;53.282;6.150;2023-04-24T01:49:27;99740.81;;;17.87;58.49
62126;BME280;69591;53.282;6.150;2023-04-24T01:50:28;99738.09;;;17.87;58.36
62126;BME280;69591;53.282;6.150;2023-04-24T01:51:30;99743.53;;;17.87;58.74
62126;BME280;69591;53.282;6.150;2023-04-24T01:52:31;99747.47;;;17.86;58.51
62126;BME280;69591;53.282;6.150;2023-04-24T01:53:34;99738.09;;;17.87;58.49
62126;BME280;69591;53.282;6.150;2023-04-24T01:54:36;99746.28;;;17.87;58.60
62126;BME280;69591;53.282;6.150;2023-04-24T01:55:38;99743.53;;;17.87;58.55
62126;BME280;69591;53.282;6.150;2023-04-24T01:56:40;99745.09;;;17.88;58.59
62126;BME280;69591;53.282;6.150;2023-04-24T01:57:42;99749.00;;;17.87;58.35
62126;BME280;69591;53.282;6.150;2023-04-24T01:58:43;99745.53;;;17.86;58.47
62126;BME280;69591;53.282;6.150;2023-04-24T01:59:45;99745.53;;;17.86;58.65
62126;BME280;69591;53.282;6.150;2023-04-24T02:00:48;99742.00;;;17.86;58.69
62126;BME280;69591;53.282;6.150;2023-04-24T02:01:50;99742.78;;;17.86;58.49
62126;BME280;69591;53.282;6.150;2023-04-24T02:02:53;99747.47;;;17.86;58.47
62126;BME280;69591;53.282;6.150;2023-04-24T02:03:54;99740.06;;;17.86;58.55
62126;BME280;69591;53.282;6.150;2023-04-24T02:04:57;99742.78;;;17.86;58.70
62126;BME280;69591;53.282;6.150;2023-04-24T02:05:58;99734.59;;;17.86;58.65
62126;BME280;69591;53.282;6.150;2023-04-24T02:07:00;99742.00;;;17.86;58.76
62126;BME280;69591;53.282;6.150;2023-04-24T02:08:01;99744.75;;;17.86;58.69
62126;BME280;69591;53.282;6.150;2023-04-24T02:09:04;99742.00;;;17.86;58.66
62126;BME280;69591;53.282;6.150;2023-04-24T02:10:06;99744.75;;;17.86;58.70
62126;BME280;69591;53.282;6.150;2023-04-24T02:11:08;99748.25;;;17.86;58.57
62126;BME280;69591;53.282;6.150;2023-04-24T02:12:10;99746.28;;;17.87;58.54
62126;BME280;69591;53.282;6.150;2023-04-24T02:13:11;99747.47;;;17.86;58.60
62126;BME280;69591;53.282;6.150;2023-04-24T02:14:13;99742.00;;;17.86;58.57
62126;BME280;69591;53.282;6.150;2023-04-24T02:15:14;99750.19;;;17.86;58.67
62126;BME280;69591;53.282;6.150;2023-04-24T02:16:16;99742.00;;;17.86;58.61
62126;BME280;69591;53.282;6.150;2023-04-24T02:17:17;99742.78;;;17.86;58.57
62126;BME280;69591;53.282;6.150;2023-04-24T02:18:19;99742.78;;;17.86;58.54
62126;BME280;69591;53.282;6.150;2023-04-24T02:19:20;99736.56;;;17.86;58.81
62126;BME280;69591;53.282;6.150;2023-04-24T02:20:24;99744.31;;;17.87;58.75
62126;BME280;69591;53.282;6.150;2023-04-24T02:21:27;99747.47;;;17.86;58.55
62126;BME280;69591;53.282;6.150;2023-04-24T02:22:28;99747.47;;;17.86;58.53
62126;BME280;69591;53.282;6.150;2023-04-24T02:23:30;99742.00;;;17.86;58.61
62126;BME280;69591;53.282;6.150;2023-04-24T02:24:33;99742.00;;;17.86;58.61
62126;BME280;69591;53.282;6.150;2023-04-24T02:25:34;99742.00;;;17.86;58.70
62126;BME280;69591;53.282;6.150;2023-04-24T02:26:36;99747.47;;;17.86;58.70
62126;BME280;69591;53.282;6.150;2023-04-24T02:27:37;99754.47;;;17.87;58.45
62126;BME280;69591;53.282;6.150;2023-04-24T02:28:39;99742.00;;;17.86;58.50
62126;BME280;69591;53.282;6.150;2023-04-24T02:29:41;99742.00;;;17.86;58.61
62126;BME280;69591;53.282;6.150;2023-04-24T02:30:43;99745.94;;;17.85;58.62
62126;BME280;69591;53.282;6.150;2023-04-24T02:31:45;99739.28;;;17.86;58.73
62126;BME280;69591;53.282;6.150;2023-04-24T02:32:48;99744.75;;;17.86;58.73
62126;BME280;69591;53.282;6.150;2023-04-24T02:33:50;99743.97;;;17.85;58.76
62126;BME280;69591;53.282;6.150;2023-04-24T02:34:52;99741.22;;;17.85;58.59
62126;BME280;69591;53.282;6.150;2023-04-24T02:35:53;99747.47;;;17.86;58.74
62126;BME280;69591;53.282;6.150;2023-04-24T02:36:55;99746.69;;;17.85;58.50
62126;BME280;69591;53.282;6.150;2023-04-24T02:37:56;99742.00;;;17.86;58.56
62126;BME280;69591;53.282;6.150;2023-04-24T02:38:58;99743.97;;;17.85;58.71
62126;BME280;69591;53.282;6.150;2023-04-24T02:40:00;99742.00;;;17.86;58.71
62126;BME280;69591;53.282;6.150;2023-04-24T02:41:02;99741.22;;;17.85;58.61
62126;BME280;69591;53.282;6.150;2023-04-24T02:42:04;99746.69;;;17.85;58.51
62126;BME280;69591;53.282;6.150;2023-04-24T02:43:05;99740.47;;;17.85;58.76
62126;BME280;69591;53.282;6.150;2023-04-24T02:44:07;99740.47;;;17.85;58.64
62126;BME280;69591;53.282;6.150;2023-04-24T02:45:08;99736.97;;;17.84;58.53
62126;BME280;69591;53.282;6.150;2023-04-24T02:46:10;99743.97;;;17.85;58.81
62126;BME280;69591;53.282;6.150;2023-04-24T02:47:12;99745.94;;;17.85;58.71
62126;BME280;69591;53.282;6.150;2023-04-24T02:48:13;99743.97;;;17.85;58.75
62126;BME280;69591;53.282;6.150;2023-04-24T02:49:15;99751.41;;;17.85;58.72
62126;BME280;69591;53.282;6.150;2023-04-24T02:50:16;99747.47;;;17.86;58.70
62126;BME280;69591;53.282;6.150;2023-04-24T02:51:18;99746.69;;;17.85;58.47
62126;BME280;69591;53.282;6.150;2023-04-24T02:52:19;99748.66;;;17.85;58.72
62126;BME280;69591;53.282;6.150;2023-04-24T02:53:21;99752.94;;;17.86;58.67
62126;BME280;69591;53.282;6.150;2023-04-24T02:54:22;99745.94;;;17.85;58.74
62126;BME280;69591;53.282;6.150;2023-04-24T02:55:25;99745.94;;;17.85;58.62
62126;BME280;69591;53.282;6.150;2023-04-24T02:56:27;99749.41;;;17.85;58.76
62126;BME280;69591;53.282;6.150;2023-04-24T02:57:30;99745.94;;;17.85;58.73
62126;BME280;69591;53.282;6.150;2023-04-24T02:58:32;99745.94;;;17.85;58.73
62126;BME280;69591;53.282;6.150;2023-04-24T02:59:33;99746.69;;;17.85;58.47
62126;BME280;69591;53.282;6.150;2023-04-24T03:00:35;99743.22;;;17.85;58.51
62126;BME280;69591;53.282;6.150;2023-04-24T03:01:36;99737.75;;;17.85;58.64
62126;BME280;69591;53.282;6.150;2023-04-24T03:02:38;99751.41;;;17.85;58.45
62126;BME280;69591;53.282;6.150;2023-04-24T03:03:40;99740.47;;;17.85;58.51
62126;BME280;69591;53.282;6.150;2023-04-24T03:04:41;99745.16;;;17.84;58.51
62126;BME280;69591;53.282;6.150;2023-04-24T03:05:43;99748.66;;;17.85;58.46
62126;BME280;69591;53.282;6.150;2023-04-24T03:06:44;99748.66;;;17.85;58.60
62126;BME280;69591;53.282;6.150;2023-04-24T03:07:47;99751.41;;;17.85;58.68
62126;BME280;69591;53.282;6.150;2023-04-24T03:08:48;99745.94;;;17.85;58.62
62126;BME280;69591;53.282;6.150;2023-04-24T03:09:50;99743.22;;;17.85;58.51
62126;BME280;69591;53.282;6.150;2023-04-24T03:10:53;99745.94;;;17.85;58.55
62126;BME280;69591;53.282;6.150;2023-04-24T03:11:54;99745.16;;;17.84;58.64
62126;BME280;69591;53.282;6.150;2023-04-24T03:12:56;99756.09;;;17.84;58.77
62126;BME280;69591;53.282;6.150;2023-04-24T03:13:57;99747.09;;;17.84;58.78
62126;BME280;69591;53.282;6.150;2023-04-24T03:14:59;99753.34;;;17.84;58.47
62126;BME280;69591;53.282;6.150;2023-04-24T03:16:00;99749.84;;;17.84;58.57
62126;BME280;69591;53.282;6.150;2023-04-24T03:17:02;99745.16;;;17.84;58.72
62126;BME280;69591;53.282;6.150;2023-04-24T03:18:03;99753.34;;;17.84;58.72
62126;BME280;69591;53.282;6.150;2023-04-24T03:19:05;99747.09;;;17.84;58.54
62126;BME280;69591;53.282;6.150;2023-04-24T03:20:10;99747.09;;;17.84;58.78
62126;BME280;69591;53.282;6.150;2023-04-24T03:21:12;99751.41;;;17.85;58.72
62126;BME280;69591;53.282;6.150;2023-04-24T03:22:14;99752.56;;;17.84;58.69
62126;BME280;69591;53.282;6.150;2023-04-24T03:23:16;99749.84;;;17.84;58.57
62126;BME280;69591;53.282;6.150;2023-04-24T03:24:17;99750.63;;;17.84;58.45
62126;BME280;69591;53.282;6.150;2023-04-24T03:25:19;99756.09;;;17.84;58.72
62126;BME280;69591;53.282;6.150;2023-04-24T03:26:22;99763.50;;;17.84;58.73
62126;BME280;69591;53.282;6.150;2023-04-24T03:27:35;99758.81;;;17.84;58.71
62126;BME280;69591;53.282;6.150;2023-04-24T03:28:41;99763.50;;;17.84;58.73
62126;BME280;69591;53.282;6.150;2023-04-24T03:29:43;99767.00;;;17.84;58.45
62126;BME280;69591;53.282;6.150;2023-04-24T03:30:45;99772.47;;;17.84;58.57
62126;BME280;69591;53.282;6.150;2023-04-24T03:31:47;99762.75;;;17.83;58.75
62126;BME280;69591;53.282;6.150;2023-04-24T03:32:50;99768.94;;;17.84;58.67
62126;BME280;69591;53.282;6.150;2023-04-24T03:33:57;99763.50;;;17.84;58.53
62126;BME280;69591;53.282;6.150;2023-04-24T03:34:58;99766.22;;;17.84;58.84
62126;BME280;69591;53.282;6.150;2023-04-24T03:36:00;99762.75;;;17.83;58.65
62126;BME280;69591;53.282;6.150;2023-04-24T03:37:09;99765.06;;;17.85;58.67
62126;BME280;69591;53.282;6.150;2023-04-24T03:38:15;99766.22;;;17.84;58.52
62126;BME280;69591;53.282;6.150;2023-04-24T03:39:16;99763.50;;;17.84;58.82
62126;BME280;69591;53.282;6.150;2023-04-24T03:40:25;99762.75;;;17.83;58.79
62126;BME280;69591;53.282;6.150;2023-04-24T03:41:28;99770.94;;;17.83;58.66
62126;BME280;69591;53.282;6.150;2023-04-24T03:42:37;99772.47;;;17.84;58.56
62126;BME280;69591;53.282;6.150;2023-04-24T03:43:39;99772.47;;;17.84;58.38
62126;BME280;69591;53.282;6.150;2023-04-24T03:44:41;99772.88;;;17.83;58.57
62126;BME280;69591;53.282;6.150;2023-04-24T03:45:43;99771.69;;;17.84;58.72
62126;BME280;69591;53.282;6.150;2023-04-24T03:46:46;99779.88;;;17.84;58.77
62126;BME280;69591;53.282;6.150;2023-04-24T03:47:47;99782.59;;;17.84;58.82
62126;BME280;69591;53.282;6.150;2023-04-24T03:48:49;99779.88;;;17.84;58.64
62126;BME280;69591;53.282;6.150;2023-04-24T03:49:53;99771.69;;;17.84;58.50
62126;BME280;69591;53.282;6.150;2023-04-24T03:50:54;99779.88;;;17.84;58.70
62126;BME280;69591;53.282;6.150;2023-04-24T03:51:56;99787.31;;;17.83;58.46
62126;BME280;69591;53.282;6.150;2023-04-24T03:53:00;99777.16;;;17.84;58.56
62126;BME280;69591;53.282;6.150;2023-04-24T03:54:10;99775.59;;;17.83;58.54
62126;BME280;69591;53.282;6.150;2023-04-24T03:55:13;99777.16;;;17.84;58.52
62126;BME280;69591;53.282;6.150;2023-04-24T03:56:19;99778.34;;;17.83;58.73
62126;BME280;69591;53.282;6.150;2023-04-24T03:57:22;99784.59;;;17.83;58.70
62126;BME280;69591;53.282;6.150;2023-04-24T03:58:37;99779.53;;;17.82;58.69
62126;BME280;69591;53.282;6.150;2023-04-24T03:59:39;99778.34;;;17.83;58.74
62126;BME280;69591;53.282;6.150;2023-04-24T04:00:46;99781.84;;;17.83;58.77
62126;BME280;69591;53.282;6.150;2023-04-24T04:02:06;99781.84;;;17.83;58.76
62126;BME280;69591;53.282;6.150;2023-04-24T04:03:08;99781.84;;;17.83;58.67
62126;BME280;69591;53.282;6.150;2023-04-24T04:04:09;99778.34;;;17.83;58.74
62126;BME280;69591;53.282;6.150;2023-04-24T04:05:12;99782.59;;;17.84;58.77
62126;BME280;69591;53.282;6.150;2023-04-24T04:06:13;99782.59;;;17.84;58.73
62126;BME280;69591;53.282;6.150;2023-04-24T04:07:15;99788.06;;;17.84;58.78
62126;BME280;69591;53.282;6.150;2023-04-24T04:08:17;99788.06;;;17.84;58.72
62126;BME280;69591;53.282;6.150;2023-04-24T04:09:18;99790.03;;;17.83;58.75
62126;BME280;69591;53.282;6.150;2023-04-24T04:10:20;99792.00;;;17.83;58.58
62126;BME280;69591;53.282;6.150;2023-04-24T04:11:21;99792.78;;;17.83;58.73
62126;BME280;69591;53.282;6.150;2023-04-24T04:12:26;99796.25;;;17.84;58.74
62126;BME280;69591;53.282;6.150;2023-04-24T04:13:27;99793.53;;;17.84;58.69
62126;BME280;69591;53.282;6.150;2023-04-24T04:14:29;99797.47;;;17.83;58.80
62126;BME280;69591;53.282;6.150;2023-04-24T04:15:31;99795.13;;;17.81;58.75
62126;BME280;69591;53.282;6.150;2023-04-24T04:16:32;99801.38;;;17.82;58.70
62126;BME280;69591;53.282;6.150;2023-04-24T04:17:36;99789.25;;;17.83;58.72
62126;BME280;69591;53.282;6.150;2023-04-24T04:18:40;99803.69;;;17.83;58.60
62126;BME280;69591;53.282;6.150;2023-04-24T04:19:42;99805.66;;;17.83;58.59
62126;BME280;69591;53.282;6.150;2023-04-24T04:20:44;99802.13;;;17.82;58.66
62126;BME280;69591;53.282;6.150;2023-04-24T04:21:47;99798.66;;;17.82;58.56
62126;BME280;69591;53.282;6.150;2023-04-24T04:22:58;99802.91;;;17.83;58.83
62126;BME280;69591;53.282;6.150;2023-04-24T04:24:11;99800.19;;;17.83;58.82
62126;BME280;69591;53.282;6.150;2023-04-24T04:25:16;99801.38;;;17.82;58.68
62126;BME280;69591;53.282;6.150;2023-04-24T04:26:18;99804.13;;;17.82;58.71
62126;BME280;69591;53.282;6.150;2023-04-24T04:27:43;99800.59;;;17.81;58.79
62126;BME280;69591;53.282;6.150;2023-04-24T04:28:47;99801.38;;;17.82;58.69
62126;BME280;69591;53.282;6.150;2023-04-24T04:29:49;99806.84;;;17.82;58.77
62126;BME280;69591;53.282;6.150;2023-04-24T04:30:50;99801.38;;;17.82;58.75
62126;BME280;69591;53.282;6.150;2023-04-24T04:31:52;99810.31;;;17.82;58.60
62126;BME280;69591;53.282;6.150;2023-04-24T04:32:55;99811.53;;;17.81;58.49
62126;BME280;69591;53.282;6.150;2023-04-24T04:33:56;99809.56;;;17.82;58.51
62126;BME280;69591;53.282;6.150;2023-04-24T04:34:58;99813.84;;;17.83;58.74
62126;BME280;69591;53.282;6.150;2023-04-24T04:36:01;99818.53;;;17.82;58.74
62126;BME280;69591;53.282;6.150;2023-04-24T04:37:04;99814.25;;;17.81;58.48
62126;BME280;69591;53.282;6.150;2023-04-24T04:38:16;99815.03;;;17.82;58.70
62126;BME280;69591;53.282;6.150;2023-04-24T04:39:22;99817.00;;;17.81;58.75
62126;BME280;69591;53.282;6.150;2023-04-24T04:40:33;99820.50;;;17.82;58.60
62126;BME280;69591;53.282;6.150;2023-04-24T04:41:38;99817.78;;;17.82;58.49
62126;BME280;69591;53.282;6.150;2023-04-24T04:42:40;99818.94;;;17.81;58.58
62126;BME280;69591;53.282;6.150;2023-04-24T04:43:43;99825.19;;;17.81;58.65
62126;BME280;69591;53.282;6.150;2023-04-24T04:44:45;99825.19;;;17.81;58.56
62126;BME280;69591;53.282;6.150;2023-04-24T04:45:51;99827.13;;;17.81;58.55
62126;BME280;69591;53.282;6.150;2023-04-24T04:47:17;99834.16;;;17.82;58.80
62126;BME280;69591;53.282;6.150;2023-04-24T04:48:19;99827.13;;;17.81;58.51
62126;BME280;69591;53.282;6.150;2023-04-24T04:49:21;99835.69;;;17.83;58.58
62126;BME280;69591;53.282;6.150;2023-04-24T04:50:22;99835.31;;;17.81;58.78
62126;BME280;69591;53.282;6.150;2023-04-24T04:51:27;99834.16;;;17.82;58.62
62126;BME280;69591;53.282;6.150;2023-04-24T04:52:28;99844.28;;;17.81;58.56
62126;BME280;69591;53.282;6.150;2023-04-24T04:53:42;99852.47;;;17.81;58.54
62126;BME280;69591;53.282;6.150;2023-04-24T04:54:43;99843.50;;;17.81;58.63
62126;BME280;69591;53.282;6.150;2023-04-24T04:55:45;99844.28;;;17.81;58.77
62126;BME280;69591;53.282;6.150;2023-04-24T04:56:50;99847.81;;;17.82;58.79
62126;BME280;69591;53.282;6.150;2023-04-24T04:57:51;99855.22;;;17.81;58.88
62126;BME280;69591;53.282;6.150;2023-04-24T04:58:54;99844.28;;;17.81;58.71
62126;BME280;69591;53.282;6.150;2023-04-24T04:59:56;99855.22;;;17.81;58.55
62126;BME280;69591;53.282;6.150;2023-04-24T05:01:10;99844.28;;;17.81;58.51
62126;BME280;69591;53.282;6.150;2023-04-24T05:02:15;99856.00;;;17.82;58.70
62126;BME280;69591;53.282;6.150;2023-04-24T05:03:17;99859.88;;;17.81;58.61
62126;BME280;69591;53.282;6.150;2023-04-24T05:04:25;99854.44;;;17.81;58.56
62126;BME280;69591;53.282;6.150;2023-04-24T05:05:27;99856.41;;;17.80;58.75
62126;BME280;69591;53.282;6.150;2023-04-24T05:06:29;99859.88;;;17.81;58.63
62126;BME280;69591;53.282;6.150;2023-04-24T05:07:30;99856.41;;;17.80;58.51
62126;BME280;69591;53.282;6.150;2023-04-24T05:08:32;99868.88;;;17.81;58.78
62126;BME280;69591;53.282;6.150;2023-04-24T05:09:34;99865.34;;;17.81;58.70
62126;BME280;69591;53.282;6.150;2023-04-24T05:10:38;99862.63;;;17.81;58.50
62126;BME280;69591;53.282;6.150;2023-04-24T05:11:40;99859.88;;;17.81;58.59
62126;BME280;69591;53.282;6.150;2023-04-24T05:12:41;99864.59;;;17.80;58.71
62126;BME280;69591;53.282;6.150;2023-04-24T05:13:46;99858.34;;;17.80;58.59
62126;BME280;69591;53.282;6.150;2023-04-24T05:14:57;99869.28;;;17.80;58.85
62126;BME280;69591;53.282;6.150;2023-04-24T05:15:59;99863.81;;;17.80;58.87
62126;BME280;69591;53.282;6.150;2023-04-24T05:17:02;99869.28;;;17.80;58.78
62126;BME280;69591;53.282;6.150;2023-04-24T05:18:04;99875.53;;;17.80;58.72
62126;BME280;69591;53.282;6.150;2023-04-24T05:19:07;99875.53;;;17.80;58.60
62126;BME280;69591;53.282;6.150;2023-04-24T05:20:12;99872.78;;;17.80;58.64
62126;BME280;69591;53.282;6.150;2023-04-24T05:21:14;99874.75;;;17.80;58.59
62126;BME280;69591;53.282;6.150;2023-04-24T05:22:18;99875.53;;;17.80;58.52
62126;BME280;69591;53.282;6.150;2023-04-24T05:23:24;99881.75;;;17.81;58.78
62126;BME280;69591;53.282;6.150;2023-04-24T05:24:27;99881.75;;;17.81;58.59
62126;BME280;69591;53.282;6.150;2023-04-24T05:26:03;99884.47;;;17.81;59.01
62126;BME280;69591;53.282;6.150;2023-04-24T05:27:07;99883.72;;;17.80;58.67
62126;BME280;69591;53.282;6.150;2023-04-24T05:28:13;99888.41;;;17.80;58.71
62126;BME280;69591;53.282;6.150;2023-04-24T05:29:14;99886.84;;;17.79;58.91
62126;BME280;69591;53.282;6.150;2023-04-24T05:30:18;99885.66;;;17.80;58.66
62126;BME280;69591;53.282;6.150;2023-04-24T05:31:19;99889.19;;;17.80;58.62
62126;BME280;69591;53.282;6.150;2023-04-24T05:32:21;99891.91;;;17.80;58.84